sensor_id;sensor_type;location;lat;lon;timestamp;P1;durP1;ratioP1;P2;durP2;ratioP2
8159;SDS011;27404;52.398;9.646;2023-08-01T00:00:50;1.97;;;0.80;;
8159;SDS011;27404;52.398;9.646;2023-08-01T00:03:15;1.10;;;0.73;;
8159;SDS011;27404;52.398;9.646;2023-08-01T00:05:41;3.93;;;0.60;;
8159;SDS011;27404;52.398;9.646;2023-08-01T00:08:12;2.33;;;0.97;;
8159;SDS011;27404;52.398;9.646;2023-08-01T00:10:38;1.87;;;0.77;;
8159;SDS011;27404;52.398;9.646;2023-08-01T00:13:04;3.83;;;0.87;;
8159;SDS011;27404;52.398;9.646;2023-08-01T00:15:30;0.90;;;0.80;;
8159;SDS011;27404;52.398;9.646;2023-08-01T00:17:55;2.50;;;0.90;;
8159;SDS011;27404;52.398;9.646;2023-08-01T00:20:21;1.00;;;0.80;;
8159;SDS011;27404;52.398;9.646;2023-08-01T00:22:46;1.80;;;0.90;;
8159;SDS011;27404;52.398;9.646;2023-08-01T00:25:12;1.67;;;1.03;;
8159;SDS011;27404;52.398;9.646;2023-08-01T00:27:38;1.93;;;0.87;;
8159;SDS011;27404;52.398;9.646;2023-08-01T00:30:04;2.77;;;1.10;;
8159;SDS011;27404;52.398;9.646;2023-08-01T00:32:30;3.83;;;1.00;;
8159;SDS011;27404;52.398;9.646;2023-08-01T00:34:56;3.33;;;1.80;;
8159;SDS011;27404;52.398;9.646;2023-08-01T00:37:21;2.80;;;1.17;;
8159;SDS011;27404;52.398;9.646;2023-08-01T00:39:47;1.40;;;1.00;;
8159;SDS011;27404;52.398;9.646;2023-08-01T00:42:12;3.37;;;1.30;;
8159;SDS011;27404;52.398;9.646;2023-08-01T00:44:38;1.30;;;0.90;;
8159;SDS011;27404;52.398;9.646;2023-08-01T00:47:04;1.40;;;1.00;;
8159;SDS011;27404;52.398;9.646;2023-08-01T00:49:30;6.83;;;1.10;;
8159;SDS011;27404;52.398;9.646;2023-08-01T00:51:55;3.17;;;1.57;;
8159;SDS011;27404;52.398;9.646;2023-08-01T00:54:21;3.27;;;1.00;;
8159;SDS011;27404;52.398;9.646;2023-08-01T00:56:46;4.23;;;1.30;;
8159;SDS011;27404;52.398;9.646;2023-08-01T00:59:12;1.17;;;0.90;;
8159;SDS011;27404;52.398;9.646;2023-08-01T01:01:38;1.90;;;1.10;;
8159;SDS011;27404;52.398;9.646;2023-08-01T01:04:04;3.50;;;1.87;;
8159;SDS011;27404;52.398;9.646;2023-08-01T01:06:33;4.03;;;1.40;;
8159;SDS011;27404;52.398;9.646;2023-08-01T01:09:14;2.53;;;1.30;;
8159;SDS011;27404;52.398;9.646;2023-08-01T01:11:43;5.03;;;1.47;;
8159;SDS011;27404;52.398;9.646;2023-08-01T01:14:09;7.23;;;1.43;;
8159;SDS011;27404;52.398;9.646;2023-08-01T01:16:34;4.87;;;1.50;;
8159;SDS011;27404;52.398;9.646;2023-08-01T01:19:00;5.27;;;1.80;;
8159;SDS011;27404;52.398;9.646;2023-08-01T01:21:25;3.03;;;1.70;;
8159;SDS011;27404;52.398;9.646;2023-08-01T01:23:50;3.23;;;1.70;;
8159;SDS011;27404;52.398;9.646;2023-08-01T01:26:17;2.40;;;1.93;;
8159;SDS011;27404;52.398;9.646;2023-08-01T01:28:47;3.37;;;1.83;;
8159;SDS011;27404;52.398;9.646;2023-08-01T01:31:14;5.80;;;2.00;;
8159;SDS011;27404;52.398;9.646;2023-08-01T01:33:41;2.73;;;1.77;;
8159;SDS011;27404;52.398;9.646;2023-08-01T01:36:06;2.53;;;1.80;;
8159;SDS011;27404;52.398;9.646;2023-08-01T01:38:32;2.20;;;1.60;;
8159;SDS011;27404;52.398;9.646;2023-08-01T01:40:57;3.00;;;1.67;;
8159;SDS011;27404;52.398;9.646;2023-08-01T01:43:23;3.23;;;1.60;;
8159;SDS011;27404;52.398;9.646;2023-08-01T01:45:48;4.53;;;1.63;;
8159;SDS011;27404;52.398;9.646;2023-08-01T01:48:14;2.20;;;1.53;;
8159;SDS011;27404;52.398;9.646;2023-08-01T01:50:39;3.90;;;1.47;;
8159;SDS011;27404;52.398;9.646;2023-08-01T01:53:04;1.57;;;1.30;;
8159;SDS011;27404;52.398;9.646;2023-08-01T01:55:30;2.87;;;1.43;;
8159;SDS011;27404;52.398;9.646;2023-08-01T01:57:55;2.67;;;1.57;;
8159;SDS011;27404;52.398;9.646;2023-08-01T02:00:21;2.17;;;1.20;;
8159;SDS011;27404;52.398;9.646;2023-08-01T02:02:46;3.07;;;1.60;;
8159;SDS011;27404;52.398;9.646;2023-08-01T02:05:12;3.33;;;1.30;;
8159;SDS011;27404;52.398;9.646;2023-08-01T02:07:37;3.33;;;1.33;;
8159;SDS011;27404;52.398;9.646;2023-08-01T02:10:03;4.80;;;1.60;;
8159;SDS011;27404;52.398;9.646;2023-08-01T02:12:28;4.47;;;1.50;;
8159;SDS011;27404;52.398;9.646;2023-08-01T02:14:56;4.30;;;1.33;;
8159;SDS011;27404;52.398;9.646;2023-08-01T02:17:23;2.87;;;1.40;;
8159;SDS011;27404;52.398;9.646;2023-08-01T02:19:48;2.60;;;1.40;;
8159;SDS011;27404;52.398;9.646;2023-08-01T02:22:14;4.63;;;1.80;;
8159;SDS011;27404;52.398;9.646;2023-08-01T02:24:39;2.57;;;1.20;;
8159;SDS011;27404;52.398;9.646;2023-08-01T02:27:04;6.00;;;1.30;;
8159;SDS011;27404;52.398;9.646;2023-08-01T02:29:30;2.47;;;1.23;;
8159;SDS011;27404;52.398;9.646;2023-08-01T02:31:56;2.33;;;1.10;;
8159;SDS011;27404;52.398;9.646;2023-08-01T02:34:21;4.93;;;1.10;;
8159;SDS011;27404;52.398;9.646;2023-08-01T02:36:47;3.40;;;1.30;;
8159;SDS011;27404;52.398;9.646;2023-08-01T02:39:12;3.00;;;1.07;;
8159;SDS011;27404;52.398;9.646;2023-08-01T02:41:37;7.03;;;1.40;;
8159;SDS011;27404;52.398;9.646;2023-08-01T02:44:03;2.17;;;1.10;;
8159;SDS011;27404;52.398;9.646;2023-08-01T02:46:28;2.63;;;1.00;;
8159;SDS011;27404;52.398;9.646;2023-08-01T02:48:54;3.37;;;1.13;;
8159;SDS011;27404;52.398;9.646;2023-08-01T02:51:20;3.63;;;1.23;;
8159;SDS011;27404;52.398;9.646;2023-08-01T02:53:46;4.33;;;1.27;;
8159;SDS011;27404;52.398;9.646;2023-08-01T02:56:11;3.60;;;1.00;;
8159;SDS011;27404;52.398;9.646;2023-08-01T02:58:36;4.37;;;1.30;;
8159;SDS011;27404;52.398;9.646;2023-08-01T03:01:08;4.43;;;1.50;;
8159;SDS011;27404;52.398;9.646;2023-08-01T03:03:35;2.00;;;1.10;;
8159;SDS011;27404;52.398;9.646;2023-08-01T03:06:01;5.63;;;1.30;;
8159;SDS011;27404;52.398;9.646;2023-08-01T03:08:27;1.87;;;1.20;;
8159;SDS011;27404;52.398;9.646;2023-08-01T03:10:56;2.67;;;1.20;;
8159;SDS011;27404;52.398;9.646;2023-08-01T03:13:23;2.90;;;1.30;;
8159;SDS011;27404;52.398;9.646;2023-08-01T03:15:48;1.53;;;1.00;;
8159;SDS011;27404;52.398;9.646;2023-08-01T03:18:14;1.70;;;1.00;;
8159;SDS011;27404;52.398;9.646;2023-08-01T03:20:39;2.23;;;1.40;;
8159;SDS011;27404;52.398;9.646;2023-08-01T03:23:05;2.30;;;1.20;;
8159;SDS011;27404;52.398;9.646;2023-08-01T03:25:30;2.50;;;1.17;;
8159;SDS011;27404;52.398;9.646;2023-08-01T03:27:56;3.50;;;1.13;;
8159;SDS011;27404;52.398;9.646;2023-08-01T03:30:22;1.60;;;1.30;;
8159;SDS011;27404;52.398;9.646;2023-08-01T03:32:47;2.40;;;0.83;;
8159;SDS011;27404;52.398;9.646;2023-08-01T03:35:13;2.30;;;1.00;;
8159;SDS011;27404;52.398;9.646;2023-08-01T03:37:39;2.63;;;0.90;;
8159;SDS011;27404;52.398;9.646;2023-08-01T03:40:05;2.60;;;0.90;;
8159;SDS011;27404;52.398;9.646;2023-08-01T03:42:34;2.53;;;0.90;;
8159;SDS011;27404;52.398;9.646;2023-08-01T03:45:00;3.27;;;0.90;;
8159;SDS011;27404;52.398;9.646;2023-08-01T03:47:26;1.20;;;0.83;;
8159;SDS011;27404;52.398;9.646;2023-08-01T03:49:52;1.10;;;0.63;;
8159;SDS011;27404;52.398;9.646;2023-08-01T03:52:17;2.80;;;1.00;;
8159;SDS011;27404;52.398;9.646;2023-08-01T03:54:42;1.57;;;0.70;;
8159;SDS011;27404;52.398;9.646;2023-08-01T03:57:08;0.97;;;0.60;;
8159;SDS011;27404;52.398;9.646;2023-08-01T03:59:33;3.07;;;0.80;;
8159;SDS011;27404;52.398;9.646;2023-08-01T04:01:59;0.97;;;0.60;;
8159;SDS011;27404;52.398;9.646;2023-08-01T04:04:24;1.70;;;0.70;;
8159;SDS011;27404;52.398;9.646;2023-08-01T04:06:50;2.33;;;0.90;;
8159;SDS011;27404;52.398;9.646;2023-08-01T04:09:15;2.20;;;0.97;;
8159;SDS011;27404;52.398;9.646;2023-08-01T04:11:40;2.23;;;0.80;;
8159;SDS011;27404;52.398;9.646;2023-08-01T04:14:06;3.03;;;1.13;;
8159;SDS011;27404;52.398;9.646;2023-08-01T04:16:31;3.17;;;0.80;;
8159;SDS011;27404;52.398;9.646;2023-08-01T04:18:57;1.40;;;0.80;;
8159;SDS011;27404;52.398;9.646;2023-08-01T04:21:22;2.60;;;0.80;;
8159;SDS011;27404;52.398;9.646;2023-08-01T04:23:48;3.77;;;1.27;;
8159;SDS011;27404;52.398;9.646;2023-08-01T04:26:13;3.83;;;0.97;;
8159;SDS011;27404;52.398;9.646;2023-08-01T04:28:38;3.47;;;0.80;;
8159;SDS011;27404;52.398;9.646;2023-08-01T04:31:04;4.30;;;1.13;;
8159;SDS011;27404;52.398;9.646;2023-08-01T04:33:29;1.90;;;0.80;;
8159;SDS011;27404;52.398;9.646;2023-08-01T04:35:55;1.60;;;0.90;;
8159;SDS011;27404;52.398;9.646;2023-08-01T04:38:20;3.07;;;0.90;;
8159;SDS011;27404;52.398;9.646;2023-08-01T04:40:46;1.93;;;0.80;;
8159;SDS011;27404;52.398;9.646;2023-08-01T04:43:11;2.70;;;0.80;;
8159;SDS011;27404;52.398;9.646;2023-08-01T04:45:37;1.50;;;0.90;;
8159;SDS011;27404;52.398;9.646;2023-08-01T04:48:03;2.70;;;1.37;;
8159;SDS011;27404;52.398;9.646;2023-08-01T04:50:28;1.70;;;1.40;;
8159;SDS011;27404;52.398;9.646;2023-08-01T04:52:54;1.40;;;1.00;;
8159;SDS011;27404;52.398;9.646;2023-08-01T04:55:19;3.10;;;1.10;;
8159;SDS011;27404;52.398;9.646;2023-08-01T04:57:45;2.13;;;1.20;;
8159;SDS011;27404;52.398;9.646;2023-08-01T05:00:10;2.70;;;1.00;;
8159;SDS011;27404;52.398;9.646;2023-08-01T05:02:36;3.63;;;1.20;;
8159;SDS011;27404;52.398;9.646;2023-08-01T05:05:02;2.53;;;1.00;;
8159;SDS011;27404;52.398;9.646;2023-08-01T05:07:28;2.20;;;0.90;;
8159;SDS011;27404;52.398;9.646;2023-08-01T05:09:54;2.90;;;1.00;;
8159;SDS011;27404;52.398;9.646;2023-08-01T05:12:20;1.80;;;0.80;;
8159;SDS011;27404;52.398;9.646;2023-08-01T05:14:45;2.07;;;1.00;;
8159;SDS011;27404;52.398;9.646;2023-08-01T05:17:10;1.40;;;1.00;;
8159;SDS011;27404;52.398;9.646;2023-08-01T05:19:36;1.80;;;1.10;;
8159;SDS011;27404;52.398;9.646;2023-08-01T05:22:01;2.27;;;1.00;;
8159;SDS011;27404;52.398;9.646;2023-08-01T05:24:27;2.20;;;1.10;;
8159;SDS011;27404;52.398;9.646;2023-08-01T05:26:52;5.00;;;1.40;;
8159;SDS011;27404;52.398;9.646;2023-08-01T05:29:18;2.97;;;1.00;;
8159;SDS011;27404;52.398;9.646;2023-08-01T05:31:43;1.57;;;0.87;;
8159;SDS011;27404;52.398;9.646;2023-08-01T05:34:09;2.63;;;0.90;;
8159;SDS011;27404;52.398;9.646;2023-08-01T05:36:34;2.80;;;0.93;;
8159;SDS011;27404;52.398;9.646;2023-08-01T05:39:00;2.90;;;0.97;;
8159;SDS011;27404;52.398;9.646;2023-08-01T05:41:25;2.03;;;1.17;;
8159;SDS011;27404;52.398;9.646;2023-08-01T05:43:51;1.70;;;1.07;;
8159;SDS011;27404;52.398;9.646;2023-08-01T05:46:17;4.57;;;1.20;;
8159;SDS011;27404;52.398;9.646;2023-08-01T05:48:42;3.57;;;1.30;;
8159;SDS011;27404;52.398;9.646;2023-08-01T05:51:08;2.67;;;1.40;;
8159;SDS011;27404;52.398;9.646;2023-08-01T05:53:33;2.40;;;1.33;;
8159;SDS011;27404;52.398;9.646;2023-08-01T05:55:58;2.93;;;1.57;;
8159;SDS011;27404;52.398;9.646;2023-08-01T05:58:24;3.20;;;1.40;;
8159;SDS011;27404;52.398;9.646;2023-08-01T06:00:49;2.73;;;1.43;;
8159;SDS011;27404;52.398;9.646;2023-08-01T06:03:15;2.60;;;1.50;;
8159;SDS011;27404;52.398;9.646;2023-08-01T06:05:41;3.03;;;1.60;;
8159;SDS011;27404;52.398;9.646;2023-08-01T06:08:07;3.20;;;2.17;;
8159;SDS011;27404;52.398;9.646;2023-08-01T06:10:35;3.87;;;2.60;;
8159;SDS011;27404;52.398;9.646;2023-08-01T06:13:01;3.00;;;2.30;;
8159;SDS011;27404;52.398;9.646;2023-08-01T06:15:27;4.33;;;2.53;;
8159;SDS011;27404;52.398;9.646;2023-08-01T06:17:52;7.40;;;2.50;;
8159;SDS011;27404;52.398;9.646;2023-08-01T06:20:18;5.80;;;3.07;;
8159;SDS011;27404;52.398;9.646;2023-08-01T06:22:43;4.60;;;2.73;;
8159;SDS011;27404;52.398;9.646;2023-08-01T06:25:09;3.70;;;2.70;;
8159;SDS011;27404;52.398;9.646;2023-08-01T06:27:34;6.40;;;3.07;;
8159;SDS011;27404;52.398;9.646;2023-08-01T06:30:00;6.63;;;3.10;;
8159;SDS011;27404;52.398;9.646;2023-08-01T06:32:26;5.30;;;2.53;;
8159;SDS011;27404;52.398;9.646;2023-08-01T06:34:51;4.90;;;3.10;;
8159;SDS011;27404;52.398;9.646;2023-08-01T06:37:17;5.80;;;2.77;;
8159;SDS011;27404;52.398;9.646;2023-08-01T06:39:42;5.53;;;2.50;;
8159;SDS011;27404;52.398;9.646;2023-08-01T06:42:08;6.37;;;2.80;;
8159;SDS011;27404;52.398;9.646;2023-08-01T06:44:33;4.80;;;2.70;;
8159;SDS011;27404;52.398;9.646;2023-08-01T06:46:59;8.80;;;3.20;;
8159;SDS011;27404;52.398;9.646;2023-08-01T06:49:24;9.33;;;2.97;;
8159;SDS011;27404;52.398;9.646;2023-08-01T06:51:50;7.77;;;2.80;;
8159;SDS011;27404;52.398;9.646;2023-08-01T06:54:15;11.17;;;3.43;;
8159;SDS011;27404;52.398;9.646;2023-08-01T06:56:41;11.53;;;3.50;;
8159;SDS011;27404;52.398;9.646;2023-08-01T06:59:12;4.87;;;3.20;;
8159;SDS011;27404;52.398;9.646;2023-08-01T07:01:39;7.13;;;3.63;;
8159;SDS011;27404;52.398;9.646;2023-08-01T07:04:05;6.83;;;3.57;;
8159;SDS011;27404;52.398;9.646;2023-08-01T07:06:31;5.57;;;3.40;;
8159;SDS011;27404;52.398;9.646;2023-08-01T07:08:56;5.80;;;3.40;;
8159;SDS011;27404;52.398;9.646;2023-08-01T07:11:22;5.17;;;3.63;;
8159;SDS011;27404;52.398;9.646;2023-08-01T07:13:48;9.93;;;3.53;;
8159;SDS011;27404;52.398;9.646;2023-08-01T07:16:13;7.33;;;4.13;;
8159;SDS011;27404;52.398;9.646;2023-08-01T07:18:39;8.13;;;4.43;;
8159;SDS011;27404;52.398;9.646;2023-08-01T07:21:05;6.30;;;4.27;;
8159;SDS011;27404;52.398;9.646;2023-08-01T07:23:31;7.97;;;4.03;;
8159;SDS011;27404;52.398;9.646;2023-08-01T07:25:59;8.10;;;4.60;;
8159;SDS011;27404;52.398;9.646;2023-08-01T07:28:24;6.83;;;4.10;;
8159;SDS011;27404;52.398;9.646;2023-08-01T07:30:57;7.77;;;4.70;;
8159;SDS011;27404;52.398;9.646;2023-08-01T07:33:24;6.83;;;4.60;;
8159;SDS011;27404;52.398;9.646;2023-08-01T07:35:49;8.83;;;4.43;;
8159;SDS011;27404;52.398;9.646;2023-08-01T07:38:15;8.23;;;4.50;;
8159;SDS011;27404;52.398;9.646;2023-08-01T07:40:40;7.03;;;4.17;;
8159;SDS011;27404;52.398;9.646;2023-08-01T07:43:06;10.67;;;4.27;;
8159;SDS011;27404;52.398;9.646;2023-08-01T07:45:33;7.73;;;4.17;;
8159;SDS011;27404;52.398;9.646;2023-08-01T07:48:00;6.60;;;4.33;;
8159;SDS011;27404;52.398;9.646;2023-08-01T07:50:25;7.23;;;4.20;;
8159;SDS011;27404;52.398;9.646;2023-08-01T07:52:51;9.80;;;4.13;;
8159;SDS011;27404;52.398;9.646;2023-08-01T07:55:16;7.73;;;4.20;;
8159;SDS011;27404;52.398;9.646;2023-08-01T07:57:43;13.53;;;5.03;;
8159;SDS011;27404;52.398;9.646;2023-08-01T08:00:09;7.53;;;3.97;;
8159;SDS011;27404;52.398;9.646;2023-08-01T08:02:36;8.60;;;4.10;;
8159;SDS011;27404;52.398;9.646;2023-08-01T08:05:01;7.57;;;4.23;;
8159;SDS011;27404;52.398;9.646;2023-08-01T08:07:27;8.60;;;3.87;;
8159;SDS011;27404;52.398;9.646;2023-08-01T08:09:52;7.80;;;4.20;;
8159;SDS011;27404;52.398;9.646;2023-08-01T08:12:20;10.43;;;3.80;;
8159;SDS011;27404;52.398;9.646;2023-08-01T08:14:46;7.70;;;3.63;;
8159;SDS011;27404;52.398;9.646;2023-08-01T08:17:11;8.23;;;3.70;;
8159;SDS011;27404;52.398;9.646;2023-08-01T08:19:37;6.77;;;3.87;;
8159;SDS011;27404;52.398;9.646;2023-08-01T08:22:02;7.80;;;3.80;;
8159;SDS011;27404;52.398;9.646;2023-08-01T08:24:28;10.13;;;4.10;;
8159;SDS011;27404;52.398;9.646;2023-08-01T08:26:53;10.80;;;3.50;;
8159;SDS011;27404;52.398;9.646;2023-08-01T08:29:20;7.17;;;3.47;;
8159;SDS011;27404;52.398;9.646;2023-08-01T08:31:45;8.20;;;3.57;;
8159;SDS011;27404;52.398;9.646;2023-08-01T08:34:11;6.77;;;3.43;;
8159;SDS011;27404;52.398;9.646;2023-08-01T08:36:36;10.63;;;3.70;;
8159;SDS011;27404;52.398;9.646;2023-08-01T08:39:02;7.73;;;3.20;;
8159;SDS011;27404;52.398;9.646;2023-08-01T08:41:28;7.70;;;3.37;;
8159;SDS011;27404;52.398;9.646;2023-08-01T08:43:58;4.20;;;2.50;;
8159;SDS011;27404;52.398;9.646;2023-08-01T08:46:28;3.43;;;2.27;;
8159;SDS011;27404;52.398;9.646;2023-08-01T08:48:55;5.07;;;2.40;;
8159;SDS011;27404;52.398;9.646;2023-08-01T08:51:22;5.77;;;2.87;;
8159;SDS011;27404;52.398;9.646;2023-08-01T08:53:53;6.83;;;2.53;;
8159;SDS011;27404;52.398;9.646;2023-08-01T08:56:19;6.40;;;2.73;;
8159;SDS011;27404;52.398;9.646;2023-08-01T08:58:45;6.73;;;3.00;;
8159;SDS011;27404;52.398;9.646;2023-08-01T09:01:12;7.87;;;3.13;;
8159;SDS011;27404;52.398;9.646;2023-08-01T09:03:38;11.00;;;2.97;;
8159;SDS011;27404;52.398;9.646;2023-08-01T09:06:04;7.33;;;2.73;;
8159;SDS011;27404;52.398;9.646;2023-08-01T09:08:35;4.93;;;2.90;;
8159;SDS011;27404;52.398;9.646;2023-08-01T09:11:03;5.13;;;2.93;;
8159;SDS011;27404;52.398;9.646;2023-08-01T09:13:29;6.37;;;2.73;;
8159;SDS011;27404;52.398;9.646;2023-08-01T09:15:55;4.10;;;2.60;;
8159;SDS011;27404;52.398;9.646;2023-08-01T09:18:21;5.37;;;2.60;;
8159;SDS011;27404;52.398;9.646;2023-08-01T09:20:47;4.87;;;2.40;;
8159;SDS011;27404;52.398;9.646;2023-08-01T09:23:14;5.20;;;2.20;;
8159;SDS011;27404;52.398;9.646;2023-08-01T09:25:41;4.07;;;2.20;;
8159;SDS011;27404;52.398;9.646;2023-08-01T09:28:17;4.13;;;1.90;;
8159;SDS011;27404;52.398;9.646;2023-08-01T09:30:50;5.23;;;2.30;;
8159;SDS011;27404;52.398;9.646;2023-08-01T09:33:21;4.70;;;2.33;;
8159;SDS011;27404;52.398;9.646;2023-08-01T09:35:49;3.97;;;2.13;;
8159;SDS011;27404;52.398;9.646;2023-08-01T09:38:15;5.67;;;2.20;;
8159;SDS011;27404;52.398;9.646;2023-08-01T09:40:41;4.80;;;2.27;;
8159;SDS011;27404;52.398;9.646;2023-08-01T09:43:08;5.10;;;2.03;;
8159;SDS011;27404;52.398;9.646;2023-08-01T09:45:34;4.67;;;2.27;;
8159;SDS011;27404;52.398;9.646;2023-08-01T09:48:01;6.57;;;2.37;;
8159;SDS011;27404;52.398;9.646;2023-08-01T09:50:27;5.57;;;1.90;;
8159;SDS011;27404;52.398;9.646;2023-08-01T09:52:52;5.63;;;2.23;;
8159;SDS011;27404;52.398;9.646;2023-08-01T09:55:33;5.07;;;2.23;;
8159;SDS011;27404;52.398;9.646;2023-08-01T09:58:00;5.93;;;1.90;;
8159;SDS011;27404;52.398;9.646;2023-08-01T10:00:26;7.10;;;2.33;;
8159;SDS011;27404;52.398;9.646;2023-08-01T10:02:53;4.80;;;2.17;;
8159;SDS011;27404;52.398;9.646;2023-08-01T10:05:21;5.67;;;2.53;;
8159;SDS011;27404;52.398;9.646;2023-08-01T10:07:48;5.30;;;2.10;;
8159;SDS011;27404;52.398;9.646;2023-08-01T10:10:16;3.47;;;2.10;;
8159;SDS011;27404;52.398;9.646;2023-08-01T10:12:45;5.17;;;1.87;;
8159;SDS011;27404;52.398;9.646;2023-08-01T10:15:13;2.33;;;1.80;;
8159;SDS011;27404;52.398;9.646;2023-08-01T10:17:40;3.10;;;1.97;;
8159;SDS011;27404;52.398;9.646;2023-08-01T10:20:06;4.20;;;1.80;;
8159;SDS011;27404;52.398;9.646;2023-08-01T10:22:32;3.63;;;1.80;;
8159;SDS011;27404;52.398;9.646;2023-08-01T10:24:59;8.23;;;2.47;;
8159;SDS011;27404;52.398;9.646;2023-08-01T10:27:25;4.53;;;1.90;;
8159;SDS011;27404;52.398;9.646;2023-08-01T10:29:57;4.70;;;2.00;;
8159;SDS011;27404;52.398;9.646;2023-08-01T10:34:59;3.70;;;1.80;;
8159;SDS011;27404;52.398;9.646;2023-08-01T10:37:25;7.33;;;2.33;;
8159;SDS011;27404;52.398;9.646;2023-08-01T10:40:00;11.07;;;2.73;;
8159;SDS011;27404;52.398;9.646;2023-08-01T10:42:25;7.57;;;2.40;;
8159;SDS011;27404;52.398;9.646;2023-08-01T10:45:02;5.53;;;2.30;;
8159;SDS011;27404;52.398;9.646;2023-08-01T10:47:28;5.53;;;2.17;;
8159;SDS011;27404;52.398;9.646;2023-08-01T10:49:53;5.13;;;2.43;;
8159;SDS011;27404;52.398;9.646;2023-08-01T10:52:23;7.87;;;2.60;;
8159;SDS011;27404;52.398;9.646;2023-08-01T10:54:56;4.17;;;2.40;;
8159;SDS011;27404;52.398;9.646;2023-08-01T10:57:27;4.93;;;2.20;;
8159;SDS011;27404;52.398;9.646;2023-08-01T10:59:54;8.37;;;2.80;;
8159;SDS011;27404;52.398;9.646;2023-08-01T11:02:23;5.10;;;2.17;;
8159;SDS011;27404;52.398;9.646;2023-08-01T11:07:26;6.03;;;2.33;;
8159;SDS011;27404;52.398;9.646;2023-08-01T11:10:05;6.53;;;2.53;;
8159;SDS011;27404;52.398;9.646;2023-08-01T11:12:33;5.67;;;2.17;;
8159;SDS011;27404;52.398;9.646;2023-08-01T11:15:00;5.33;;;2.20;;
8159;SDS011;27404;52.398;9.646;2023-08-01T11:17:26;4.90;;;2.17;;
8159;SDS011;27404;52.398;9.646;2023-08-01T11:19:59;5.43;;;2.10;;
8159;SDS011;27404;52.398;9.646;2023-08-01T11:22:25;5.07;;;2.30;;
8159;SDS011;27404;52.398;9.646;2023-08-01T11:24:51;4.27;;;1.73;;
8159;SDS011;27404;52.398;9.646;2023-08-01T11:27:16;4.00;;;2.13;;
8159;SDS011;27404;52.398;9.646;2023-08-01T11:29:43;4.43;;;1.53;;
8159;SDS011;27404;52.398;9.646;2023-08-01T11:32:08;4.70;;;1.67;;
8159;SDS011;27404;52.398;9.646;2023-08-01T11:34:40;3.97;;;1.90;;
8159;SDS011;27404;52.398;9.646;2023-08-01T11:37:09;3.60;;;1.40;;
8159;SDS011;27404;52.398;9.646;2023-08-01T11:39:35;4.77;;;1.73;;
8159;SDS011;27404;52.398;9.646;2023-08-01T11:42:01;5.17;;;1.90;;
8159;SDS011;27404;52.398;9.646;2023-08-01T11:44:28;5.47;;;1.87;;
8159;SDS011;27404;52.398;9.646;2023-08-01T11:46:54;6.50;;;2.40;;
8159;SDS011;27404;52.398;9.646;2023-08-01T11:49:21;5.43;;;2.20;;
8159;SDS011;27404;52.398;9.646;2023-08-01T11:51:46;5.73;;;2.00;;
8159;SDS011;27404;52.398;9.646;2023-08-01T11:54:13;3.30;;;2.00;;
8159;SDS011;27404;52.398;9.646;2023-08-01T11:56:39;3.23;;;2.10;;
8159;SDS011;27404;52.398;9.646;2023-08-01T11:59:15;4.00;;;2.10;;
8159;SDS011;27404;52.398;9.646;2023-08-01T12:01:45;4.73;;;1.87;;
8159;SDS011;27404;52.398;9.646;2023-08-01T12:04:34;4.67;;;2.03;;
8159;SDS011;27404;52.398;9.646;2023-08-01T12:06:58;3.97;;;1.90;;
8159;SDS011;27404;52.398;9.646;2023-08-01T12:09:25;4.97;;;2.30;;
8159;SDS011;27404;52.398;9.646;2023-08-01T12:11:57;2.93;;;1.77;;
8159;SDS011;27404;52.398;9.646;2023-08-01T12:14:27;6.90;;;2.43;;
8159;SDS011;27404;52.398;9.646;2023-08-01T12:16:53;4.83;;;2.20;;
8159;SDS011;27404;52.398;9.646;2023-08-01T12:19:19;3.37;;;2.20;;
8159;SDS011;27404;52.398;9.646;2023-08-01T12:21:45;6.37;;;2.20;;
8159;SDS011;27404;52.398;9.646;2023-08-01T12:24:11;4.87;;;2.53;;
8159;SDS011;27404;52.398;9.646;2023-08-01T12:26:37;3.87;;;2.17;;
8159;SDS011;27404;52.398;9.646;2023-08-01T12:29:02;2.80;;;1.70;;
8159;SDS011;27404;52.398;9.646;2023-08-01T12:31:28;4.00;;;2.00;;
8159;SDS011;27404;52.398;9.646;2023-08-01T12:33:54;5.10;;;2.10;;
8159;SDS011;27404;52.398;9.646;2023-08-01T12:36:19;3.43;;;1.90;;
8159;SDS011;27404;52.398;9.646;2023-08-01T12:38:45;7.50;;;2.30;;
8159;SDS011;27404;52.398;9.646;2023-08-01T12:41:11;5.90;;;2.10;;
8159;SDS011;27404;52.398;9.646;2023-08-01T12:43:37;5.40;;;2.03;;
8159;SDS011;27404;52.398;9.646;2023-08-01T12:46:02;6.53;;;2.10;;
8159;SDS011;27404;52.398;9.646;2023-08-01T12:48:28;3.40;;;1.97;;
8159;SDS011;27404;52.398;9.646;2023-08-01T12:50:54;3.33;;;2.17;;
8159;SDS011;27404;52.398;9.646;2023-08-01T12:53:21;6.23;;;2.47;;
8159;SDS011;27404;52.398;9.646;2023-08-01T12:55:47;5.87;;;2.07;;
8159;SDS011;27404;52.398;9.646;2023-08-01T12:58:15;4.80;;;2.00;;
8159;SDS011;27404;52.398;9.646;2023-08-01T13:00:41;4.73;;;2.17;;
8159;SDS011;27404;52.398;9.646;2023-08-01T13:03:07;5.33;;;2.43;;
8159;SDS011;27404;52.398;9.646;2023-08-01T13:05:33;4.60;;;2.10;;
8159;SDS011;27404;52.398;9.646;2023-08-01T13:07:59;5.53;;;2.77;;
8159;SDS011;27404;52.398;9.646;2023-08-01T13:10:25;4.87;;;2.63;;
8159;SDS011;27404;52.398;9.646;2023-08-01T13:12:50;3.67;;;2.10;;
8159;SDS011;27404;52.398;9.646;2023-08-01T13:15:16;5.10;;;2.33;;
8159;SDS011;27404;52.398;9.646;2023-08-01T13:17:41;6.53;;;2.63;;
8159;SDS011;27404;52.398;9.646;2023-08-01T13:20:07;4.00;;;2.40;;
8159;SDS011;27404;52.398;9.646;2023-08-01T13:22:32;6.43;;;3.33;;
8159;SDS011;27404;52.398;9.646;2023-08-01T13:24:58;7.43;;;2.40;;
8159;SDS011;27404;52.398;9.646;2023-08-01T13:27:24;7.13;;;2.43;;
8159;SDS011;27404;52.398;9.646;2023-08-01T13:29:49;4.73;;;1.93;;
8159;SDS011;27404;52.398;9.646;2023-08-01T13:32:17;5.30;;;2.00;;
8159;SDS011;27404;52.398;9.646;2023-08-01T13:34:43;4.10;;;2.10;;
8159;SDS011;27404;52.398;9.646;2023-08-01T13:37:08;4.53;;;1.87;;
8159;SDS011;27404;52.398;9.646;2023-08-01T13:39:34;3.33;;;1.43;;
8159;SDS011;27404;52.398;9.646;2023-08-01T13:42:00;1.93;;;1.67;;
8159;SDS011;27404;52.398;9.646;2023-08-01T13:44:25;3.20;;;1.63;;
8159;SDS011;27404;52.398;9.646;2023-08-01T13:46:51;2.50;;;1.60;;
8159;SDS011;27404;52.398;9.646;2023-08-01T13:49:16;3.67;;;2.10;;
8159;SDS011;27404;52.398;9.646;2023-08-01T13:51:42;5.13;;;1.87;;
8159;SDS011;27404;52.398;9.646;2023-08-01T13:54:07;4.87;;;1.67;;
8159;SDS011;27404;52.398;9.646;2023-08-01T13:56:32;2.00;;;1.40;;
8159;SDS011;27404;52.398;9.646;2023-08-01T13:58:58;4.83;;;1.53;;
8159;SDS011;27404;52.398;9.646;2023-08-01T14:01:23;3.47;;;1.60;;
8159;SDS011;27404;52.398;9.646;2023-08-01T14:03:49;5.10;;;1.70;;
8159;SDS011;27404;52.398;9.646;2023-08-01T14:06:14;2.87;;;1.77;;
8159;SDS011;27404;52.398;9.646;2023-08-01T14:08:40;3.03;;;1.47;;
8159;SDS011;27404;52.398;9.646;2023-08-01T14:11:07;3.63;;;1.50;;
8159;SDS011;27404;52.398;9.646;2023-08-01T14:13:36;4.13;;;1.63;;
8159;SDS011;27404;52.398;9.646;2023-08-01T14:16:02;4.30;;;1.70;;
8159;SDS011;27404;52.398;9.646;2023-08-01T14:18:30;5.13;;;1.60;;
8159;SDS011;27404;52.398;9.646;2023-08-01T14:20:56;6.33;;;1.90;;
8159;SDS011;27404;52.398;9.646;2023-08-01T14:23:22;3.93;;;1.33;;
8159;SDS011;27404;52.398;9.646;2023-08-01T14:25:47;3.67;;;1.50;;
8159;SDS011;27404;52.398;9.646;2023-08-01T14:28:13;3.37;;;1.63;;
8159;SDS011;27404;52.398;9.646;2023-08-01T14:30:39;2.67;;;1.47;;
8159;SDS011;27404;52.398;9.646;2023-08-01T14:33:07;4.23;;;1.70;;
8159;SDS011;27404;52.398;9.646;2023-08-01T14:35:36;2.77;;;1.37;;
8159;SDS011;27404;52.398;9.646;2023-08-01T14:38:02;2.97;;;1.13;;
8159;SDS011;27404;52.398;9.646;2023-08-01T14:40:28;4.27;;;1.70;;
8159;SDS011;27404;52.398;9.646;2023-08-01T14:42:54;5.03;;;1.30;;
8159;SDS011;27404;52.398;9.646;2023-08-01T14:45:21;3.00;;;1.40;;
8159;SDS011;27404;52.398;9.646;2023-08-01T14:47:47;3.73;;;1.23;;
8159;SDS011;27404;52.398;9.646;2023-08-01T14:50:13;7.60;;;1.30;;
8159;SDS011;27404;52.398;9.646;2023-08-01T14:52:39;2.83;;;1.20;;
8159;SDS011;27404;52.398;9.646;2023-08-01T14:55:05;4.27;;;1.10;;
8159;SDS011;27404;52.398;9.646;2023-08-01T14:57:31;3.67;;;1.17;;
8159;SDS011;27404;52.398;9.646;2023-08-01T14:59:59;2.57;;;1.17;;